sensor_id;sensor_type;location;lat;lon;timestamp;temperature;humidity
79750;SHT31;69233;51.968;5.658;2023-08-06T00:02:27;19.1;69.8
79750;SHT31;69233;51.968;5.658;2023-08-06T00:04:56;19.1;69.6
79750;SHT31;69233;51.968;5.658;2023-08-06T00:07:26;19.1;70.2
79750;SHT31;69233;51.968;5.658;2023-08-06T00:09:55;19.1;70.1
79750;SHT31;69233;51.968;5.658;2023-08-06T00:12:25;19.1;69.7
79750;SHT31;69233;51.968;5.658;2023-08-06T00:14:55;19.0;69.5
79750;SHT31;69233;51.968;5.658;2023-08-06T00:17:24;19.0;69.9
79750;SHT31;69233;51.968;5.658;2023-08-06T00:19:54;19.0;70.4
79750;SHT31;69233;51.968;5.658;2023-08-06T00:22:24;19.0;69.9
79750;SHT31;69233;51.968;5.658;2023-08-06T00:24:53;19.0;70.0
79750;SHT31;69233;51.968;5.658;2023-08-06T00:27:25;19.0;70.4
79750;SHT31;69233;51.968;5.658;2023-08-06T00:29:55;19.0;70.3
79750;SHT31;69233;51.968;5.658;2023-08-06T00:32:25;19.0;70.3
79750;SHT31;69233;51.968;5.658;2023-08-06T00:34:55;19.0;70.5
79750;SHT31;69233;51.968;5.658;2023-08-06T00:37:27;19.0;70.6
79750;SHT31;69233;51.968;5.658;2023-08-06T00:39:56;19.0;70.3
79750;SHT31;69233;51.968;5.658;2023-08-06T00:42:26;19.1;70.7
79750;SHT31;69233;51.968;5.658;2023-08-06T00:44:55;19.1;70.4
79750;SHT31;69233;51.968;5.658;2023-08-06T00:47:25;19.1;70.8
79750;SHT31;69233;51.968;5.658;2023-08-06T00:49:55;19.1;70.8
79750;SHT31;69233;51.968;5.658;2023-08-06T00:52:25;19.1;71.1
79750;SHT31;69233;51.968;5.658;2023-08-06T00:54:55;19.1;71.1
79750;SHT31;69233;51.968;5.658;2023-08-06T00:57:25;19.1;71.0
79750;SHT31;69233;51.968;5.658;2023-08-06T00:59:56;19.1;71.1
79750;SHT31;69233;51.968;5.658;2023-08-06T01:02:25;19.1;71.3
79750;SHT31;69233;51.968;5.658;2023-08-06T01:04:55;19.1;71.2
79750;SHT31;69233;51.968;5.658;2023-08-06T01:07:37;19.1;71.3
79750;SHT31;69233;51.968;5.658;2023-08-06T01:10:49;19.1;71.3
79750;SHT31;69233;51.968;5.658;2023-08-06T01:13:26;19.1;71.2
79750;SHT31;69233;51.968;5.658;2023-08-06T01:16:02;19.1;71.3
79750;SHT31;69233;51.968;5.658;2023-08-06T01:18:33;19.1;71.5
79750;SHT31;69233;51.968;5.658;2023-08-06T01:21:06;19.1;71.5
79750;SHT31;69233;51.968;5.658;2023-08-06T01:23:36;19.1;71.5
79750;SHT31;69233;51.968;5.658;2023-08-06T01:26:11;19.1;71.2
79750;SHT31;69233;51.968;5.658;2023-08-06T01:28:47;19.1;71.4
79750;SHT31;69233;51.968;5.658;2023-08-06T01:31:24;19.1;71.3
79750;SHT31;69233;51.968;5.658;2023-08-06T01:33:58;19.1;71.3
79750;SHT31;69233;51.968;5.658;2023-08-06T01:36:30;19.1;71.7
79750;SHT31;69233;51.968;5.658;2023-08-06T01:39:00;19.1;71.7
79750;SHT31;69233;51.968;5.658;2023-08-06T01:41:30;19.1;71.6
79750;SHT31;69233;51.968;5.658;2023-08-06T01:44:01;19.1;71.6
79750;SHT31;69233;51.968;5.658;2023-08-06T01:46:32;19.1;71.8
79750;SHT31;69233;51.968;5.658;2023-08-06T01:49:02;19.0;71.6
79750;SHT31;69233;51.968;5.658;2023-08-06T01:51:32;19.0;71.7
79750;SHT31;69233;51.968;5.658;2023-08-06T01:54:03;19.0;71.7
79750;SHT31;69233;51.968;5.658;2023-08-06T01:56:36;19.0;72.0
79750;SHT31;69233;51.968;5.658;2023-08-06T01:59:07;19.0;72.1
79750;SHT31;69233;51.968;5.658;2023-08-06T02:01:37;19.0;72.0
79750;SHT31;69233;51.968;5.658;2023-08-06T02:04:12;19.0;72.1
79750;SHT31;69233;51.968;5.658;2023-08-06T02:06:43;19.0;72.4
79750;SHT31;69233;51.968;5.658;2023-08-06T02:09:12;19.0;72.7
79750;SHT31;69233;51.968;5.658;2023-08-06T02:11:42;19.0;72.6
79750;SHT31;69233;51.968;5.658;2023-08-06T02:14:12;19.0;72.5
79750;SHT31;69233;51.968;5.658;2023-08-06T02:16:42;19.0;72.5
79750;SHT31;69233;51.968;5.658;2023-08-06T02:19:11;19.0;72.3
79750;SHT31;69233;51.968;5.658;2023-08-06T02:21:41;19.0;72.5
79750;SHT31;69233;51.968;5.658;2023-08-06T02:24:11;19.0;72.3
79750;SHT31;69233;51.968;5.658;2023-08-06T02:26:41;19.0;72.3
79750;SHT31;69233;51.968;5.658;2023-08-06T02:29:11;19.0;72.5
79750;SHT31;69233;51.968;5.658;2023-08-06T02:31:41;19.0;72.4
79750;SHT31;69233;51.968;5.658;2023-08-06T02:34:15;19.0;72.7
79750;SHT31;69233;51.968;5.658;2023-08-06T02:36:46;19.1;72.4
79750;SHT31;69233;51.968;5.658;2023-08-06T02:43:14;19.1;72.3
79750;SHT31;69233;51.968;5.658;2023-08-06T02:45:56;19.1;72.3
79750;SHT31;69233;51.968;5.658;2023-08-06T02:48:33;19.1;72.2
79750;SHT31;69233;51.968;5.658;2023-08-06T02:51:05;19.1;72.3
79750;SHT31;69233;51.968;5.658;2023-08-06T02:53:34;19.2;72.0
79750;SHT31;69233;51.968;5.658;2023-08-06T02:56:05;19.2;72.0
79750;SHT31;69233;51.968;5.658;2023-08-06T02:58:34;19.2;72.0
79750;SHT31;69233;51.968;5.658;2023-08-06T03:01:05;19.2;71.6
79750;SHT31;69233;51.968;5.658;2023-08-06T03:03:36;19.2;71.8
79750;SHT31;69233;51.968;5.658;2023-08-06T03:06:09;19.2;71.7
79750;SHT31;69233;51.968;5.658;2023-08-06T03:08:38;19.2;71.9
79750;SHT31;69233;51.968;5.658;2023-08-06T03:11:09;19.2;71.9
79750;SHT31;69233;51.968;5.658;2023-08-06T03:13:39;19.2;71.9
79750;SHT31;69233;51.968;5.658;2023-08-06T03:16:08;19.1;71.9
79750;SHT31;69233;51.968;5.658;2023-08-06T03:18:40;19.1;71.9
79750;SHT31;69233;51.968;5.658;2023-08-06T03:21:10;19.1;71.9
79750;SHT31;69233;51.968;5.658;2023-08-06T03:23:40;19.1;71.8
79750;SHT31;69233;51.968;5.658;2023-08-06T03:26:12;19.1;71.8
79750;SHT31;69233;51.968;5.658;2023-08-06T03:28:42;19.1;71.9
79750;SHT31;69233;51.968;5.658;2023-08-06T03:31:12;19.1;71.7
79750;SHT31;69233;51.968;5.658;2023-08-06T03:33:41;19.1;72.0
79750;SHT31;69233;51.968;5.658;2023-08-06T03:36:11;19.1;71.9
79750;SHT31;69233;51.968;5.658;2023-08-06T03:38:41;19.1;72.1
79750;SHT31;69233;51.968;5.658;2023-08-06T03:41:11;19.1;71.9
79750;SHT31;69233;51.968;5.658;2023-08-06T03:43:41;19.1;71.8
79750;SHT31;69233;51.968;5.658;2023-08-06T03:46:11;19.1;71.9
79750;SHT31;69233;51.968;5.658;2023-08-06T03:48:41;19.1;71.8
79750;SHT31;69233;51.968;5.658;2023-08-06T03:51:11;19.1;71.8
79750;SHT31;69233;51.968;5.658;2023-08-06T03:53:43;19.1;71.9
79750;SHT31;69233;51.968;5.658;2023-08-06T03:56:13;19.0;71.7
79750;SHT31;69233;51.968;5.658;2023-08-06T03:58:43;19.0;71.8
79750;SHT31;69233;51.968;5.658;2023-08-06T04:01:14;19.0;71.9
79750;SHT31;69233;51.968;5.658;2023-08-06T04:03:44;19.0;71.9
79750;SHT31;69233;51.968;5.658;2023-08-06T04:06:14;19.0;71.9
79750;SHT31;69233;51.968;5.658;2023-08-06T04:08:44;19.0;71.9
79750;SHT31;69233;51.968;5.658;2023-08-06T04:11:14;19.0;71.9
79750;SHT31;69233;51.968;5.658;2023-08-06T04:13:51;19.0;72.0
79750;SHT31;69233;51.968;5.658;2023-08-06T04:16:21;19.0;72.1
79750;SHT31;69233;51.968;5.658;2023-08-06T04:18:54;19.0;72.0
79750;SHT31;69233;51.968;5.658;2023-08-06T04:21:25;19.0;71.9
79750;SHT31;69233;51.968;5.658;2023-08-06T04:23:56;19.0;72.1
79750;SHT31;69233;51.968;5.658;2023-08-06T04:26:27;19.0;72.1
79750;SHT31;69233;51.968;5.658;2023-08-06T04:28:57;19.0;72.2
79750;SHT31;69233;51.968;5.658;2023-08-06T04:31:28;19.0;72.5
79750;SHT31;69233;51.968;5.658;2023-08-06T04:33:59;19.0;72.7
79750;SHT31;69233;51.968;5.658;2023-08-06T04:36:29;19.0;72.5
79750;SHT31;69233;51.968;5.658;2023-08-06T04:38:59;19.0;72.7
79750;SHT31;69233;51.968;5.658;2023-08-06T04:41:28;19.0;72.7
79750;SHT31;69233;51.968;5.658;2023-08-06T04:43:58;19.0;72.9
79750;SHT31;69233;51.968;5.658;2023-08-06T04:46:30;19.0;72.7
79750;SHT31;69233;51.968;5.658;2023-08-06T04:49:01;19.0;72.9
79750;SHT31;69233;51.968;5.658;2023-08-06T04:51:32;19.0;72.7
79750;SHT31;69233;51.968;5.658;2023-08-06T04:54:02;19.0;73.0
79750;SHT31;69233;51.968;5.658;2023-08-06T04:56:32;19.1;72.9
79750;SHT31;69233;51.968;5.658;2023-08-06T04:59:04;19.1;73.3
79750;SHT31;69233;51.968;5.658;2023-08-06T05:01:34;19.1;73.0
79750;SHT31;69233;51.968;5.658;2023-08-06T05:04:04;19.1;73.3
79750;SHT31;69233;51.968;5.658;2023-08-06T05:06:37;19.1;73.2
79750;SHT31;69233;51.968;5.658;2023-08-06T05:09:09;19.1;72.9
79750;SHT31;69233;51.968;5.658;2023-08-06T05:11:39;19.2;72.8
79750;SHT31;69233;51.968;5.658;2023-08-06T05:14:08;19.2;73.3
79750;SHT31;69233;51.968;5.658;2023-08-06T05:16:38;19.2;73.2
79750;SHT31;69233;51.968;5.658;2023-08-06T05:19:08;19.2;73.1
79750;SHT31;69233;51.968;5.658;2023-08-06T05:21:38;19.3;73.4
79750;SHT31;69233;51.968;5.658;2023-08-06T05:24:09;19.3;72.9
79750;SHT31;69233;51.968;5.658;2023-08-06T05:26:40;19.3;72.6
79750;SHT31;69233;51.968;5.658;2023-08-06T05:29:14;19.3;72.7
79750;SHT31;69233;51.968;5.658;2023-08-06T05:31:44;19.4;72.7
79750;SHT31;69233;51.968;5.658;2023-08-06T05:34:14;19.4;72.2
79750;SHT31;69233;51.968;5.658;2023-08-06T05:36:44;19.4;73.0
79750;SHT31;69233;51.968;5.658;2023-08-06T05:39:18;19.4;72.7
79750;SHT31;69233;51.968;5.658;2023-08-06T05:41:48;19.4;72.3
79750;SHT31;69233;51.968;5.658;2023-08-06T05:44:21;19.5;72.4
79750;SHT31;69233;51.968;5.658;2023-08-06T05:46:51;19.5;72.6
79750;SHT31;69233;51.968;5.658;2023-08-06T05:49:21;19.5;72.7
79750;SHT31;69233;51.968;5.658;2023-08-06T05:51:51;19.5;72.7
79750;SHT31;69233;51.968;5.658;2023-08-06T05:54:22;19.5;73.1
79750;SHT31;69233;51.968;5.658;2023-08-06T05:56:52;19.6;73.0
79750;SHT31;69233;51.968;5.658;2023-08-06T05:59:21;19.6;72.4
79750;SHT31;69233;51.968;5.658;2023-08-06T06:01:52;19.6;72.1
79750;SHT31;69233;51.968;5.658;2023-08-06T06:04:21;19.6;72.3
79750;SHT31;69233;51.968;5.658;2023-08-06T06:06:51;19.6;72.0
79750;SHT31;69233;51.968;5.658;2023-08-06T06:09:21;19.6;72.1
79750;SHT31;69233;51.968;5.658;2023-08-06T06:11:50;19.6;71.9
79750;SHT31;69233;51.968;5.658;2023-08-06T06:14:20;19.7;72.0
79750;SHT31;69233;51.968;5.658;2023-08-06T06:16:50;19.7;72.2
79750;SHT31;69233;51.968;5.658;2023-08-06T06:19:20;19.7;72.0
79750;SHT31;69233;51.968;5.658;2023-08-06T06:21:50;19.7;72.1
79750;SHT31;69233;51.968;5.658;2023-08-06T06:24:20;19.7;72.2
79750;SHT31;69233;51.968;5.658;2023-08-06T06:26:50;19.7;72.1
79750;SHT31;69233;51.968;5.658;2023-08-06T06:29:19;19.7;72.0
79750;SHT31;69233;51.968;5.658;2023-08-06T06:31:49;19.7;71.8
79750;SHT31;69233;51.968;5.658;2023-08-06T06:34:18;19.7;71.5
79750;SHT31;69233;51.968;5.658;2023-08-06T06:36:48;19.7;71.9
79750;SHT31;69233;51.968;5.658;2023-08-06T06:39:18;19.7;71.7
79750;SHT31;69233;51.968;5.658;2023-08-06T06:41:47;19.7;71.7
79750;SHT31;69233;51.968;5.658;2023-08-06T06:44:17;19.7;71.3
79750;SHT31;69233;51.968;5.658;2023-08-06T06:46:47;19.7;71.6
79750;SHT31;69233;51.968;5.658;2023-08-06T06:49:17;19.7;71.6
79750;SHT31;69233;51.968;5.658;2023-08-06T06:51:47;19.7;71.6
79750;SHT31;69233;51.968;5.658;2023-08-06T06:54:16;19.7;71.5
79750;SHT31;69233;51.968;5.658;2023-08-06T06:56:46;19.7;71.6
79750;SHT31;69233;51.968;5.658;2023-08-06T06:59:16;19.7;71.8
79750;SHT31;69233;51.968;5.658;2023-08-06T07:01:46;19.7;72.0
79750;SHT31;69233;51.968;5.658;2023-08-06T07:04:15;19.7;72.0
79750;SHT31;69233;51.968;5.658;2023-08-06T07:06:45;19.7;72.1
79750;SHT31;69233;51.968;5.658;2023-08-06T07:09:15;19.7;72.2
79750;SHT31;69233;51.968;5.658;2023-08-06T07:11:46;19.8;72.6
79750;SHT31;69233;51.968;5.658;2023-08-06T07:14:17;19.8;72.6
79750;SHT31;69233;51.968;5.658;2023-08-06T07:16:55;19.8;72.3
79750;SHT31;69233;51.968;5.658;2023-08-06T07:19:25;19.8;72.2
79750;SHT31;69233;51.968;5.658;2023-08-06T07:21:55;19.8;72.4
79750;SHT31;69233;51.968;5.658;2023-08-06T07:24:25;19.9;72.7
79750;SHT31;69233;51.968;5.658;2023-08-06T07:26:54;19.9;72.7
79750;SHT31;69233;51.968;5.658;2023-08-06T07:29:24;19.9;73.5
79750;SHT31;69233;51.968;5.658;2023-08-06T07:31:54;20.0;74.4
79750;SHT31;69233;51.968;5.658;2023-08-06T07:34:40;20.0;74.3
79750;SHT31;69233;51.968;5.658;2023-08-06T07:37:10;20.1;74.5
79750;SHT31;69233;51.968;5.658;2023-08-06T07:39:40;20.1;74.7
79750;SHT31;69233;51.968;5.658;2023-08-06T07:42:10;20.2;74.1
79750;SHT31;69233;51.968;5.658;2023-08-06T07:44:40;20.3;72.5
79750;SHT31;69233;51.968;5.658;2023-08-06T07:47:09;20.4;72.7
79750;SHT31;69233;51.968;5.658;2023-08-06T07:49:41;20.4;72.5
79750;SHT31;69233;51.968;5.658;2023-08-06T07:52:10;20.5;72.4
79750;SHT31;69233;51.968;5.658;2023-08-06T07:54:41;20.5;72.1
79750;SHT31;69233;51.968;5.658;2023-08-06T07:57:12;20.5;71.5
79750;SHT31;69233;51.968;5.658;2023-08-06T07:59:42;20.6;71.3
79750;SHT31;69233;51.968;5.658;2023-08-06T08:02:11;20.6;70.9
79750;SHT31;69233;51.968;5.658;2023-08-06T08:04:41;20.6;70.3
79750;SHT31;69233;51.968;5.658;2023-08-06T08:07:11;20.6;70.7
79750;SHT31;69233;51.968;5.658;2023-08-06T08:09:41;20.6;71.0
79750;SHT31;69233;51.968;5.658;2023-08-06T08:12:12;20.6;71.2
79750;SHT31;69233;51.968;5.658;2023-08-06T08:14:43;20.6;71.6
79750;SHT31;69233;51.968;5.658;2023-08-06T08:17:13;20.6;70.9
79750;SHT31;69233;51.968;5.658;2023-08-06T08:19:42;20.6;71.1
79750;SHT31;69233;51.968;5.658;2023-08-06T08:22:12;20.6;70.9
79750;SHT31;69233;51.968;5.658;2023-08-06T08:24:41;20.6;70.4
79750;SHT31;69233;51.968;5.658;2023-08-06T08:27:11;20.6;71.2
79750;SHT31;69233;51.968;5.658;2023-08-06T08:29:40;20.6;71.8
79750;SHT31;69233;51.968;5.658;2023-08-06T08:32:09;20.6;71.8
79750;SHT31;69233;51.968;5.658;2023-08-06T08:34:39;20.6;72.0
79750;SHT31;69233;51.968;5.658;2023-08-06T08:37:09;20.6;71.2
79750;SHT31;69233;51.968;5.658;2023-08-06T08:39:38;20.7;71.7
79750;SHT31;69233;51.968;5.658;2023-08-06T08:42:10;20.7;71.5
79750;SHT31;69233;51.968;5.658;2023-08-06T08:44:40;20.7;71.0
79750;SHT31;69233;51.968;5.658;2023-08-06T08:47:11;20.7;70.0
79750;SHT31;69233;51.968;5.658;2023-08-06T08:49:40;20.7;70.4
79750;SHT31;69233;51.968;5.658;2023-08-06T08:52:11;20.7;69.9
79750;SHT31;69233;51.968;5.658;2023-08-06T08:54:44;20.7;69.2
79750;SHT31;69233;51.968;5.658;2023-08-06T08:57:20;20.6;68.4
79750;SHT31;69233;51.968;5.658;2023-08-06T08:59:52;20.6;68.5
79750;SHT31;69233;51.968;5.658;2023-08-06T09:02:28;20.5;68.0
79750;SHT31;69233;51.968;5.658;2023-08-06T09:05:00;20.5;68.3
79750;SHT31;69233;51.968;5.658;2023-08-06T09:07:37;20.4;68.1
79750;SHT31;69233;51.968;5.658;2023-08-06T09:10:11;20.3;68.7
79750;SHT31;69233;51.968;5.658;2023-08-06T09:12:41;20.2;68.2
79750;SHT31;69233;51.968;5.658;2023-08-06T09:15:14;20.2;68.4
79750;SHT31;69233;51.968;5.658;2023-08-06T09:17:44;20.1;68.4
79750;SHT31;69233;51.968;5.658;2023-08-06T09:20:15;20.0;68.9
79750;SHT31;69233;51.968;5.658;2023-08-06T09:22:47;19.9;68.9
79750;SHT31;69233;51.968;5.658;2023-08-06T09:29:56;19.7;69.8
79750;SHT31;69233;51.968;5.658;2023-08-06T09:32:46;19.7;70.2
79750;SHT31;69233;51.968;5.658;2023-08-06T09:35:19;19.6;69.9
79750;SHT31;69233;51.968;5.658;2023-08-06T09:37:49;19.6;70.2
79750;SHT31;69233;51.968;5.658;2023-08-06T09:40:28;19.5;70.3
79750;SHT31;69233;51.968;5.658;2023-08-06T09:43:00;19.5;69.8
79750;SHT31;69233;51.968;5.658;2023-08-06T09:45:32;19.4;70.4
79750;SHT31;69233;51.968;5.658;2023-08-06T09:48:05;19.4;70.5
79750;SHT31;69233;51.968;5.658;2023-08-06T09:50:36;19.3;70.9
79750;SHT31;69233;51.968;5.658;2023-08-06T09:53:08;19.3;70.7
79750;SHT31;69233;51.968;5.658;2023-08-06T09:55:38;19.2;71.4
79750;SHT31;69233;51.968;5.658;2023-08-06T09:58:08;19.2;71.6
79750;SHT31;69233;51.968;5.658;2023-08-06T10:00:39;19.1;72.1
79750;SHT31;69233;51.968;5.658;2023-08-06T10:03:31;19.1;72.5
79750;SHT31;69233;51.968;5.658;2023-08-06T10:08:04;19.0;72.5
79750;SHT31;69233;51.968;5.658;2023-08-06T10:10:37;19.0;72.7
79750;SHT31;69233;51.968;5.658;2023-08-06T10:15:26;18.9;73.2
79750;SHT31;69233;51.968;5.658;2023-08-06T10:19:54;18.9;73.4
79750;SHT31;69233;51.968;5.658;2023-08-06T10:22:28;18.9;73.6
79750;SHT31;69233;51.968;5.658;2023-08-06T10:27:02;18.9;73.6
79750;SHT31;69233;51.968;5.658;2023-08-06T10:29:37;18.9;73.9
79750;SHT31;69233;51.968;5.658;2023-08-06T10:32:07;18.9;74.0
79750;SHT31;69233;51.968;5.658;2023-08-06T10:34:59;18.9;74.2
79750;SHT31;69233;51.968;5.658;2023-08-06T10:37:36;18.9;74.1
79750;SHT31;69233;51.968;5.658;2023-08-06T10:40:09;18.8;73.9
79750;SHT31;69233;51.968;5.658;2023-08-06T10:42:40;18.8;74.1
79750;SHT31;69233;51.968;5.658;2023-08-06T10:46:26;18.8;74.3
79750;SHT31;69233;51.968;5.658;2023-08-06T10:48:56;18.8;74.2
79750;SHT31;69233;51.968;5.658;2023-08-06T10:51:26;18.8;74.3
79750;SHT31;69233;51.968;5.658;2023-08-06T10:53:57;18.8;74.7
79750;SHT31;69233;51.968;5.658;2023-08-06T10:56:27;18.8;74.8
79750;SHT31;69233;51.968;5.658;2023-08-06T10:58:57;18.8;75.3
79750;SHT31;69233;51.968;5.658;2023-08-06T11:03:32;18.8;75.3
79750;SHT31;69233;51.968;5.658;2023-08-06T11:08:01;18.9;75.3
79750;SHT31;69233;51.968;5.658;2023-08-06T11:10:32;18.9;74.9
79750;SHT31;69233;51.968;5.658;2023-08-06T11:13:09;19.0;75.4
79750;SHT31;69233;51.968;5.658;2023-08-06T11:16:18;19.0;75.4
79750;SHT31;69233;51.968;5.658;2023-08-06T11:20:02;19.0;75.0
79750;SHT31;69233;51.968;5.658;2023-08-06T11:22:35;19.1;74.4
79750;SHT31;69233;51.968;5.658;2023-08-06T11:25:07;19.1;74.1
79750;SHT31;69233;51.968;5.658;2023-08-06T11:27:36;19.2;74.1
79750;SHT31;69233;51.968;5.658;2023-08-06T11:30:07;19.2;73.8
79750;SHT31;69233;51.968;5.658;2023-08-06T11:32:46;19.2;73.6
79750;SHT31;69233;51.968;5.658;2023-08-06T11:35:18;19.2;73.7
79750;SHT31;69233;51.968;5.658;2023-08-06T11:37:47;19.2;74.2
79750;SHT31;69233;51.968;5.658;2023-08-06T11:40:17;19.2;74.0
79750;SHT31;69233;51.968;5.658;2023-08-06T11:42:48;19.1;74.0
79750;SHT31;69233;51.968;5.658;2023-08-06T11:45:22;19.1;73.8
79750;SHT31;69233;51.968;5.658;2023-08-06T11:47:52;19.1;74.3
79750;SHT31;69233;51.968;5.658;2023-08-06T11:50:26;19.1;74.7
79750;SHT31;69233;51.968;5.658;2023-08-06T11:52:58;19.1;74.2
79750;SHT31;69233;51.968;5.658;2023-08-06T11:55:28;19.1;74.2
79750;SHT31;69233;51.968;5.658;2023-08-06T11:58:05;19.1;74.4
79750;SHT31;69233;51.968;5.658;2023-08-06T12:00:36;19.1;73.7
79750;SHT31;69233;51.968;5.658;2023-08-06T12:03:06;19.1;73.8
79750;SHT31;69233;51.968;5.658;2023-08-06T12:05:36;19.1;74.4
79750;SHT31;69233;51.968;5.658;2023-08-06T12:08:06;19.1;74.6
79750;SHT31;69233;51.968;5.658;2023-08-06T12:10:38;19.1;75.0
79750;SHT31;69233;51.968;5.658;2023-08-06T12:13:08;19.1;75.8
79750;SHT31;69233;51.968;5.658;2023-08-06T12:15:38;19.1;75.3
79750;SHT31;69233;51.968;5.658;2023-08-06T12:18:08;19.1;75.4
79750;SHT31;69233;51.968;5.658;2023-08-06T12:20:38;19.2;74.7
79750;SHT31;69233;51.968;5.658;2023-08-06T12:23:09;19.2;75.2
79750;SHT31;69233;51.968;5.658;2023-08-06T12:25:42;19.2;74.7
79750;SHT31;69233;51.968;5.658;2023-08-06T12:28:12;19.2;74.7
79750;SHT31;69233;51.968;5.658;2023-08-06T12:30:43;19.2;73.1
79750;SHT31;69233;51.968;5.658;2023-08-06T12:33:13;19.2;72.9
79750;SHT31;69233;51.968;5.658;2023-08-06T12:35:42;19.2;73.0
79750;SHT31;69233;51.968;5.658;2023-08-06T12:38:12;19.2;72.7
79750;SHT31;69233;51.968;5.658;2023-08-06T12:40:42;19.2;72.7
79750;SHT31;69233;51.968;5.658;2023-08-06T12:43:11;19.2;72.7
79750;SHT31;69233;51.968;5.658;2023-08-06T12:45:51;19.2;72.7
79750;SHT31;69233;51.968;5.658;2023-08-06T12:48:22;19.2;72.3
79750;SHT31;69233;51.968;5.658;2023-08-06T12:50:51;19.2;72.9
79750;SHT31;69233;51.968;5.658;2023-08-06T12:53:21;19.1;73.1
79750;SHT31;69233;51.968;5.658;2023-08-06T12:55:50;19.1;73.3
79750;SHT31;69233;51.968;5.658;2023-08-06T12:58:20;19.1;73.7
79750;SHT31;69233;51.968;5.658;2023-08-06T13:00:49;19.1;73.7
79750;SHT31;69233;51.968;5.658;2023-08-06T13:03:19;19.0;73.9
79750;SHT31;69233;51.968;5.658;2023-08-06T13:05:48;19.0;74.2
79750;SHT31;69233;51.968;5.658;2023-08-06T13:08:18;19.0;73.9
79750;SHT31;69233;51.968;5.658;2023-08-06T13:10:48;19.0;74.7
79750;SHT31;69233;51.968;5.658;2023-08-06T13:13:17;19.0;74.7
79750;SHT31;69233;51.968;5.658;2023-08-06T13:15:46;19.0;75.0
79750;SHT31;69233;51.968;5.658;2023-08-06T13:18:16;18.9;75.3
79750;SHT31;69233;51.968;5.658;2023-08-06T13:20:45;18.9;74.7
79750;SHT31;69233;51.968;5.658;2023-08-06T13:23:21;18.9;75.2
79750;SHT31;69233;51.968;5.658;2023-08-06T13:25:51;18.9;75.7
79750;SHT31;69233;51.968;5.658;2023-08-06T13:28:20;18.9;76.3
79750;SHT31;69233;51.968;5.658;2023-08-06T13:30:50;19.0;76.7
79750;SHT31;69233;51.968;5.658;2023-08-06T13:33:19;19.0;76.8
79750;SHT31;69233;51.968;5.658;2023-08-06T13:35:49;19.0;76.9
79750;SHT31;69233;51.968;5.658;2023-08-06T13:38:18;19.0;76.5
79750;SHT31;69233;51.968;5.658;2023-08-06T13:40:48;19.1;76.2
79750;SHT31;69233;51.968;5.658;2023-08-06T13:43:17;19.1;76.2
79750;SHT31;69233;51.968;5.658;2023-08-06T13:45:49;19.1;76.6
79750;SHT31;69233;51.968;5.658;2023-08-06T13:48:18;19.2;76.8
79750;SHT31;69233;51.968;5.658;2023-08-06T13:50:48;19.2;77.4
79750;SHT31;69233;51.968;5.658;2023-08-06T13:53:17;19.3;77.2
79750;SHT31;69233;51.968;5.658;2023-08-06T13:55:47;19.3;77.1
79750;SHT31;69233;51.968;5.658;2023-08-06T13:58:16;19.4;76.3
79750;SHT31;69233;51.968;5.658;2023-08-06T14:00:48;19.4;75.7
79750;SHT31;69233;51.968;5.658;2023-08-06T14:03:20;19.4;76.1
79750;SHT31;69233;51.968;5.658;2023-08-06T14:05:50;19.5;75.3
79750;SHT31;69233;51.968;5.658;2023-08-06T14:08:23;19.5;75.2
79750;SHT31;69233;51.968;5.658;2023-08-06T14:10:53;19.5;75.5
79750;SHT31;69233;51.968;5.658;2023-08-06T14:13:23;19.6;75.7
79750;SHT31;69233;51.968;5.658;2023-08-06T14:15:53;19.6;75.0
79750;SHT31;69233;51.968;5.658;2023-08-06T14:18:24;19.6;75.2
79750;SHT31;69233;51.968;5.658;2023-08-06T14:20:57;19.6;75.2
79750;SHT31;69233;51.968;5.658;2023-08-06T14:23:26;19.6;74.7
79750;SHT31;69233;51.968;5.658;2023-08-06T14:25:56;19.7;74.7
79750;SHT31;69233;51.968;5.658;2023-08-06T14:28:25;19.7;74.2
79750;SHT31;69233;51.968;5.658;2023-08-06T14:30:55;19.7;74.0
79750;SHT31;69233;51.968;5.658;2023-08-06T14:33:24;19.7;74.1
79750;SHT31;69233;51.968;5.658;2023-08-06T14:35:54;19.7;74.1
79750;SHT31;69233;51.968;5.658;2023-08-06T14:38:23;19.7;73.9
79750;SHT31;69233;51.968;5.658;2023-08-06T14:40:53;19.7;74.3
79750;SHT31;69233;51.968;5.658;2023-08-06T14:43:22;19.7;74.1
79750;SHT31;69233;51.968;5.658;2023-08-06T14:45:52;19.7;74.2
79750;SHT31;69233;51.968;5.658;2023-08-06T14:48:21;19.6;74.3
79750;SHT31;69233;51.968;5.658;2023-08-06T14:50:51;19.6;74.5
79750;SHT31;69233;51.968;5.658;2023-08-06T14:53:20;19.6;74.5
79750;SHT31;69233;51.968;5.658;2023-08-06T14:55:50;19.6;74.4
79750;SHT31;69233;51.968;5.658;2023-08-06T14:58:19;19.6;74.4
79750;SHT31;69233;51.968;5.658;2023-08-06T15:00:49;19.6;74.6
79750;SHT31;69233;51.968;5.658;2023-08-06T15:03:18;19.6;74.9
79750;SHT31;69233;51.968;5.658;2023-08-06T15:05:48;19.6;74.7
79750;SHT31;69233;51.968;5.658;2023-08-06T15:08:19;19.6;74.5
79750;SHT31;69233;51.968;5.658;2023-08-06T15:10:52;19.6;74.5
79750;SHT31;69233;51.968;5.658;2023-08-06T15:13:21;19.6;74.5
79750;SHT31;69233;51.968;5.658;2023-08-06T15:15:51;19.6;74.3
79750;SHT31;69233;51.968;5.658;2023-08-06T15:18:20;19.6;73.6
79750;SHT31;69233;51.968;5.658;2023-08-06T15:20:50;19.6;74.4
79750;SHT31;69233;51.968;5.658;2023-08-06T15:23:19;19.5;74.5
79750;SHT31;69233;51.968;5.658;2023-08-06T15:25:49;19.5;74.7
79750;SHT31;69233;51.968;5.658;2023-08-06T15:28:19;19.5;74.8
79750;SHT31;69233;51.968;5.658;2023-08-06T15:30:51;19.5;74.6
79750;SHT31;69233;51.968;5.658;2023-08-06T15:33:21;19.5;73.9
79750;SHT31;69233;51.968;5.658;2023-08-06T15:35:50;19.5;74.4
79750;SHT31;69233;51.968;5.658;2023-08-06T15:38:20;19.5;74.5
79750;SHT31;69233;51.968;5.658;2023-08-06T15:40:50;19.5;74.5
79750;SHT31;69233;51.968;5.658;2023-08-06T15:43:19;19.5;74.2
79750;SHT31;69233;51.968;5.658;2023-08-06T15:45:49;19.5;74.3
79750;SHT31;69233;51.968;5.658;2023-08-06T15:48:18;19.5;74.4
79750;SHT31;69233;51.968;5.658;2023-08-06T15:50:47;19.5;73.8
79750;SHT31;69233;51.968;5.658;2023-08-06T15:53:17;19.5;73.1
79750;SHT31;69233;51.968;5.658;2023-08-06T15:55:47;19.5;73.7
79750;SHT31;69233;51.968;5.658;2023-08-06T15:58:17;19.5;74.0
79750;SHT31;69233;51.968;5.658;2023-08-06T16:00:46;19.5;74.0
79750;SHT31;69233;51.968;5.658;2023-08-06T16:03:16;19.4;74.3
79750;SHT31;69233;51.968;5.658;2023-08-06T16:05:45;19.4;74.4
79750;SHT31;69233;51.968;5.658;2023-08-06T16:08:15;19.4;73.9
79750;SHT31;69233;51.968;5.658;2023-08-06T16:10:44;19.4;73.6
79750;SHT31;69233;51.968;5.658;2023-08-06T16:13:15;19.4;73.3
79750;SHT31;69233;51.968;5.658;2023-08-06T16:15:45;19.4;72.8
79750;SHT31;69233;51.968;5.658;2023-08-06T16:18:15;19.3;71.9
79750;SHT31;69233;51.968;5.658;2023-08-06T16:20:44;19.3;72.3
79750;SHT31;69233;51.968;5.658;2023-08-06T16:23:17;19.3;71.9
79750;SHT31;69233;51.968;5.658;2023-08-06T16:25:46;19.3;72.3
79750;SHT31;69233;51.968;5.658;2023-08-06T16:28:16;19.2;72.8
79750;SHT31;69233;51.968;5.658;2023-08-06T16:30:46;19.2;72.9
79750;SHT31;69233;51.968;5.658;2023-08-06T16:33:16;19.2;72.9
79750;SHT31;69233;51.968;5.658;2023-08-06T16:35:47;19.1;72.2
79750;SHT31;69233;51.968;5.658;2023-08-06T16:38:17;19.1;72.1
79750;SHT31;69233;51.968;5.658;2023-08-06T16:40:53;19.1;72.7
79750;SHT31;69233;51.968;5.658;2023-08-06T16:43:23;19.1;73.3
79750;SHT31;69233;51.968;5.658;2023-08-06T16:45:54;19.0;72.8
79750;SHT31;69233;51.968;5.658;2023-08-06T16:48:24;19.0;72.8
79750;SHT31;69233;51.968;5.658;2023-08-06T16:50:58;19.0;72.6